sensor_id;sensor_type;location;lat;lon;timestamp;P1;durP1;ratioP1;P2;durP2;ratioP2
65879;SDS011;52661;51.364;6.054;2023-08-08T00:01:20;3.75;;;1.67;;
65879;SDS011;52661;51.364;6.054;2023-08-08T00:03:46;3.35;;;1.35;;
65879;SDS011;52661;51.364;6.054;2023-08-08T00:06:11;4.07;;;1.90;;
65879;SDS011;52661;51.364;6.054;2023-08-08T00:08:37;4.05;;;1.80;;
65879;SDS011;52661;51.364;6.054;2023-08-08T00:11:02;5.05;;;1.55;;
65879;SDS011;52661;51.364;6.054;2023-08-08T00:13:27;3.83;;;1.30;;
65879;SDS011;52661;51.364;6.054;2023-08-08T00:15:53;2.85;;;1.00;;
65879;SDS011;52661;51.364;6.054;2023-08-08T00:18:18;2.35;;;1.23;;
65879;SDS011;52661;51.364;6.054;2023-08-08T00:20:44;3.80;;;1.58;;
65879;SDS011;52661;51.364;6.054;2023-08-08T00:23:09;3.70;;;1.73;;
65879;SDS011;52661;51.364;6.054;2023-08-08T00:25:35;2.78;;;1.48;;
65879;SDS011;52661;51.364;6.054;2023-08-08T00:28:01;3.72;;;1.70;;
65879;SDS011;52661;51.364;6.054;2023-08-08T00:30:26;3.55;;;1.80;;
65879;SDS011;52661;51.364;6.054;2023-08-08T00:32:51;3.65;;;1.80;;
65879;SDS011;52661;51.364;6.054;2023-08-08T00:35:17;4.00;;;1.85;;
65879;SDS011;52661;51.364;6.054;2023-08-08T00:37:42;3.70;;;1.63;;
65879;SDS011;52661;51.364;6.054;2023-08-08T00:40:08;4.57;;;1.92;;
65879;SDS011;52661;51.364;6.054;2023-08-08T00:42:33;3.60;;;1.90;;
65879;SDS011;52661;51.364;6.054;2023-08-08T00:44:59;5.82;;;1.90;;
65879;SDS011;52661;51.364;6.054;2023-08-08T00:47:28;3.53;;;1.63;;
65879;SDS011;52661;51.364;6.054;2023-08-08T00:49:58;4.50;;;2.17;;
65879;SDS011;52661;51.364;6.054;2023-08-08T00:52:25;5.53;;;2.53;;
65879;SDS011;52661;51.364;6.054;2023-08-08T00:54:51;5.68;;;2.85;;
65879;SDS011;52661;51.364;6.054;2023-08-08T00:57:17;4.63;;;2.17;;
65879;SDS011;52661;51.364;6.054;2023-08-08T00:59:43;7.38;;;3.25;;
65879;SDS011;52661;51.364;6.054;2023-08-08T01:02:09;5.07;;;2.80;;
65879;SDS011;52661;51.364;6.054;2023-08-08T01:04:34;6.20;;;2.53;;
65879;SDS011;52661;51.364;6.054;2023-08-08T01:09:32;6.63;;;3.60;;
65879;SDS011;52661;51.364;6.054;2023-08-08T01:12:02;6.80;;;3.50;;
65879;SDS011;52661;51.364;6.054;2023-08-08T01:14:29;6.00;;;2.80;;
65879;SDS011;52661;51.364;6.054;2023-08-08T01:16:57;6.00;;;3.33;;
65879;SDS011;52661;51.364;6.054;2023-08-08T01:19:29;6.80;;;3.97;;
65879;SDS011;52661;51.364;6.054;2023-08-08T01:22:01;6.78;;;3.88;;
65879;SDS011;52661;51.364;6.054;2023-08-08T01:24:29;5.72;;;2.83;;
65879;SDS011;52661;51.364;6.054;2023-08-08T01:26:57;7.50;;;3.25;;
65879;SDS011;52661;51.364;6.054;2023-08-08T01:29:26;5.85;;;3.10;;
65879;SDS011;52661;51.364;6.054;2023-08-08T01:31:52;6.05;;;2.67;;
65879;SDS011;52661;51.364;6.054;2023-08-08T01:34:18;5.88;;;2.08;;
65879;SDS011;52661;51.364;6.054;2023-08-08T01:36:57;4.93;;;1.42;;
65879;SDS011;52661;51.364;6.054;2023-08-08T01:39:29;6.32;;;2.65;;
65879;SDS011;52661;51.364;6.054;2023-08-08T01:41:56;7.18;;;2.90;;
65879;SDS011;52661;51.364;6.054;2023-08-08T01:44:24;7.22;;;2.95;;
65879;SDS011;52661;51.364;6.054;2023-08-08T01:46:51;6.40;;;3.67;;
65879;SDS011;52661;51.364;6.054;2023-08-08T01:49:17;5.60;;;2.05;;
65879;SDS011;52661;51.364;6.054;2023-08-08T01:51:43;7.75;;;3.50;;
65879;SDS011;52661;51.364;6.054;2023-08-08T01:54:08;5.95;;;2.60;;
65879;SDS011;52661;51.364;6.054;2023-08-08T01:56:34;6.43;;;2.95;;
65879;SDS011;52661;51.364;6.054;2023-08-08T01:59:00;7.55;;;3.60;;
65879;SDS011;52661;51.364;6.054;2023-08-08T02:01:25;8.52;;;3.33;;
65879;SDS011;52661;51.364;6.054;2023-08-08T02:03:51;6.85;;;3.83;;
65879;SDS011;52661;51.364;6.054;2023-08-08T02:06:16;7.35;;;3.17;;
65879;SDS011;52661;51.364;6.054;2023-08-08T02:08:42;7.22;;;2.97;;
65879;SDS011;52661;51.364;6.054;2023-08-08T02:11:07;6.28;;;2.40;;
65879;SDS011;52661;51.364;6.054;2023-08-08T02:13:32;3.28;;;1.75;;
65879;SDS011;52661;51.364;6.054;2023-08-08T02:15:58;3.47;;;1.98;;
65879;SDS011;52661;51.364;6.054;2023-08-08T02:18:23;3.38;;;1.83;;
65879;SDS011;52661;51.364;6.054;2023-08-08T02:20:48;3.55;;;1.30;;
65879;SDS011;52661;51.364;6.054;2023-08-08T02:23:14;6.38;;;2.55;;
65879;SDS011;52661;51.364;6.054;2023-08-08T02:25:39;7.13;;;2.70;;
65879;SDS011;52661;51.364;6.054;2023-08-08T02:28:05;7.23;;;2.07;;
65879;SDS011;52661;51.364;6.054;2023-08-08T02:30:30;4.40;;;1.52;;
65879;SDS011;52661;51.364;6.054;2023-08-08T02:32:56;10.30;;;2.22;;
65879;SDS011;52661;51.364;6.054;2023-08-08T02:35:21;4.35;;;2.28;;
65879;SDS011;52661;51.364;6.054;2023-08-08T02:37:47;3.97;;;2.25;;
65879;SDS011;52661;51.364;6.054;2023-08-08T02:40:12;7.82;;;2.67;;
65879;SDS011;52661;51.364;6.054;2023-08-08T02:42:37;6.22;;;3.30;;
65879;SDS011;52661;51.364;6.054;2023-08-08T02:45:03;6.97;;;4.30;;
65879;SDS011;52661;51.364;6.054;2023-08-08T02:47:29;6.80;;;3.80;;
65879;SDS011;52661;51.364;6.054;2023-08-08T02:49:54;8.48;;;3.80;;
65879;SDS011;52661;51.364;6.054;2023-08-08T02:52:19;7.25;;;3.40;;
65879;SDS011;52661;51.364;6.054;2023-08-08T02:54:45;7.85;;;2.80;;
65879;SDS011;52661;51.364;6.054;2023-08-08T02:57:10;7.78;;;2.63;;
65879;SDS011;52661;51.364;6.054;2023-08-08T02:59:36;8.18;;;2.95;;
65879;SDS011;52661;51.364;6.054;2023-08-08T03:02:02;5.50;;;3.10;;
65879;SDS011;52661;51.364;6.054;2023-08-08T03:04:28;9.88;;;2.67;;
65879;SDS011;52661;51.364;6.054;2023-08-08T03:06:54;5.78;;;3.50;;
65879;SDS011;52661;51.364;6.054;2023-08-08T03:09:19;8.32;;;3.45;;
65879;SDS011;52661;51.364;6.054;2023-08-08T03:11:45;8.32;;;3.47;;
65879;SDS011;52661;51.364;6.054;2023-08-08T03:14:10;6.50;;;3.42;;
65879;SDS011;52661;51.364;6.054;2023-08-08T03:16:36;7.30;;;3.53;;
65879;SDS011;52661;51.364;6.054;2023-08-08T03:19:01;11.73;;;3.60;;
65879;SDS011;52661;51.364;6.054;2023-08-08T03:21:26;8.98;;;3.67;;
65879;SDS011;52661;51.364;6.054;2023-08-08T03:23:53;8.20;;;3.50;;
65879;SDS011;52661;51.364;6.054;2023-08-08T03:26:18;9.50;;;3.83;;
65879;SDS011;52661;51.364;6.054;2023-08-08T03:28:44;7.82;;;3.03;;
65879;SDS011;52661;51.364;6.054;2023-08-08T03:31:09;6.93;;;2.58;;
65879;SDS011;52661;51.364;6.054;2023-08-08T03:33:34;6.88;;;2.22;;
65879;SDS011;52661;51.364;6.054;2023-08-08T03:36:00;4.47;;;2.25;;
65879;SDS011;52661;51.364;6.054;2023-08-08T03:38:25;5.22;;;2.60;;
65879;SDS011;52661;51.364;6.054;2023-08-08T03:40:51;4.55;;;1.65;;
65879;SDS011;52661;51.364;6.054;2023-08-08T03:43:16;8.18;;;2.00;;
65879;SDS011;52661;51.364;6.054;2023-08-08T03:45:41;5.38;;;2.15;;
65879;SDS011;52661;51.364;6.054;2023-08-08T03:48:07;5.00;;;2.15;;
65879;SDS011;52661;51.364;6.054;2023-08-08T03:50:32;5.03;;;1.08;;
65879;SDS011;52661;51.364;6.054;2023-08-08T03:52:58;7.28;;;2.90;;
65879;SDS011;52661;51.364;6.054;2023-08-08T03:55:23;4.75;;;2.20;;
65879;SDS011;52661;51.364;6.054;2023-08-08T03:57:49;5.95;;;1.80;;
65879;SDS011;52661;51.364;6.054;2023-08-08T04:00:14;7.95;;;3.00;;
65879;SDS011;52661;51.364;6.054;2023-08-08T04:02:40;5.78;;;2.10;;
65879;SDS011;52661;51.364;6.054;2023-08-08T04:05:05;4.93;;;1.85;;
65879;SDS011;52661;51.364;6.054;2023-08-08T04:07:31;5.60;;;2.00;;
65879;SDS011;52661;51.364;6.054;2023-08-08T04:09:56;5.97;;;2.05;;
65879;SDS011;52661;51.364;6.054;2023-08-08T04:12:22;6.25;;;1.95;;
65879;SDS011;52661;51.364;6.054;2023-08-08T04:14:47;4.00;;;1.60;;
65879;SDS011;52661;51.364;6.054;2023-08-08T04:17:12;3.60;;;1.38;;
65879;SDS011;52661;51.364;6.054;2023-08-08T04:19:38;7.22;;;1.52;;
65879;SDS011;52661;51.364;6.054;2023-08-08T04:22:03;5.28;;;1.95;;
65879;SDS011;52661;51.364;6.054;2023-08-08T04:24:29;6.07;;;1.90;;
65879;SDS011;52661;51.364;6.054;2023-08-08T04:26:54;4.35;;;1.95;;
65879;SDS011;52661;51.364;6.054;2023-08-08T04:29:20;5.10;;;1.73;;
65879;SDS011;52661;51.364;6.054;2023-08-08T04:31:45;5.22;;;1.95;;
65879;SDS011;52661;51.364;6.054;2023-08-08T04:34:11;6.40;;;1.85;;
65879;SDS011;52661;51.364;6.054;2023-08-08T04:36:36;6.30;;;2.33;;
65879;SDS011;52661;51.364;6.054;2023-08-08T04:39:01;5.90;;;2.10;;
65879;SDS011;52661;51.364;6.054;2023-08-08T04:41:27;6.15;;;1.95;;
65879;SDS011;52661;51.364;6.054;2023-08-08T04:43:52;5.50;;;2.50;;
65879;SDS011;52661;51.364;6.054;2023-08-08T04:46:18;7.18;;;3.15;;
65879;SDS011;52661;51.364;6.054;2023-08-08T04:48:43;4.68;;;2.83;;
65879;SDS011;52661;51.364;6.054;2023-08-08T04:51:09;8.27;;;2.85;;
65879;SDS011;52661;51.364;6.054;2023-08-08T04:53:34;6.15;;;2.88;;
65879;SDS011;52661;51.364;6.054;2023-08-08T04:56:00;6.00;;;2.78;;
65879;SDS011;52661;51.364;6.054;2023-08-08T04:58:25;6.18;;;3.38;;
65879;SDS011;52661;51.364;6.054;2023-08-08T05:00:51;9.02;;;3.33;;
65879;SDS011;52661;51.364;6.054;2023-08-08T05:03:17;6.97;;;2.97;;
65879;SDS011;52661;51.364;6.054;2023-08-08T05:05:42;7.25;;;2.90;;
65879;SDS011;52661;51.364;6.054;2023-08-08T05:08:10;5.40;;;2.90;;
65879;SDS011;52661;51.364;6.054;2023-08-08T05:10:36;11.32;;;3.63;;
65879;SDS011;52661;51.364;6.054;2023-08-08T05:13:01;10.52;;;3.63;;
65879;SDS011;52661;51.364;6.054;2023-08-08T05:15:27;10.88;;;3.65;;
65879;SDS011;52661;51.364;6.054;2023-08-08T05:17:52;10.45;;;3.95;;
65879;SDS011;52661;51.364;6.054;2023-08-08T05:22:45;10.13;;;3.60;;
65879;SDS011;52661;51.364;6.054;2023-08-08T05:25:10;9.30;;;3.92;;
65879;SDS011;52661;51.364;6.054;2023-08-08T05:27:36;10.02;;;4.05;;
65879;SDS011;52661;51.364;6.054;2023-08-08T05:30:01;9.13;;;3.63;;
65879;SDS011;52661;51.364;6.054;2023-08-08T05:32:26;10.60;;;4.20;;
65879;SDS011;52661;51.364;6.054;2023-08-08T05:34:52;9.27;;;3.72;;
65879;SDS011;52661;51.364;6.054;2023-08-08T05:37:17;7.63;;;3.13;;
65879;SDS011;52661;51.364;6.054;2023-08-08T05:39:43;10.63;;;4.00;;
65879;SDS011;52661;51.364;6.054;2023-08-08T05:42:09;8.80;;;4.10;;
65879;SDS011;52661;51.364;6.054;2023-08-08T05:44:35;9.15;;;4.00;;
65879;SDS011;52661;51.364;6.054;2023-08-08T05:47:00;9.93;;;4.38;;
65879;SDS011;52661;51.364;6.054;2023-08-08T05:49:25;10.18;;;4.07;;
65879;SDS011;52661;51.364;6.054;2023-08-08T05:51:51;8.75;;;3.95;;
65879;SDS011;52661;51.364;6.054;2023-08-08T05:54:16;8.65;;;3.40;;
65879;SDS011;52661;51.364;6.054;2023-08-08T05:56:42;10.13;;;3.92;;
65879;SDS011;52661;51.364;6.054;2023-08-08T05:59:07;9.70;;;3.67;;
65879;SDS011;52661;51.364;6.054;2023-08-08T06:01:32;7.00;;;3.95;;
65879;SDS011;52661;51.364;6.054;2023-08-08T06:03:59;7.03;;;3.78;;
65879;SDS011;52661;51.364;6.054;2023-08-08T06:06:25;10.13;;;4.30;;
65879;SDS011;52661;51.364;6.054;2023-08-08T06:08:51;6.47;;;3.72;;
65879;SDS011;52661;51.364;6.054;2023-08-08T06:11:17;8.77;;;3.33;;
65879;SDS011;52661;51.364;6.054;2023-08-08T06:13:42;6.13;;;2.85;;
65879;SDS011;52661;51.364;6.054;2023-08-08T06:16:08;7.45;;;2.55;;
65879;SDS011;52661;51.364;6.054;2023-08-08T06:18:34;9.95;;;3.13;;
65879;SDS011;52661;51.364;6.054;2023-08-08T06:21:00;5.45;;;2.58;;
65879;SDS011;52661;51.364;6.054;2023-08-08T06:23:26;6.00;;;3.15;;
65879;SDS011;52661;51.364;6.054;2023-08-08T06:25:51;6.55;;;2.55;;
65879;SDS011;52661;51.364;6.054;2023-08-08T06:28:17;8.75;;;3.00;;
65879;SDS011;52661;51.364;6.054;2023-08-08T06:30:42;8.00;;;2.72;;
65879;SDS011;52661;51.364;6.054;2023-08-08T06:33:07;7.55;;;3.53;;
65879;SDS011;52661;51.364;6.054;2023-08-08T06:35:33;9.55;;;2.25;;
65879;SDS011;52661;51.364;6.054;2023-08-08T06:37:59;6.20;;;3.00;;
65879;SDS011;52661;51.364;6.054;2023-08-08T06:40:24;9.93;;;2.03;;
65879;SDS011;52661;51.364;6.054;2023-08-08T06:42:50;9.25;;;3.00;;
65879;SDS011;52661;51.364;6.054;2023-08-08T06:45:15;5.38;;;2.20;;
65879;SDS011;52661;51.364;6.054;2023-08-08T06:47:41;6.43;;;2.63;;
65879;SDS011;52661;51.364;6.054;2023-08-08T06:50:06;8.35;;;2.08;;
65879;SDS011;52661;51.364;6.054;2023-08-08T06:52:32;8.30;;;3.13;;
65879;SDS011;52661;51.364;6.054;2023-08-08T06:54:58;7.75;;;2.40;;
65879;SDS011;52661;51.364;6.054;2023-08-08T06:57:23;8.43;;;2.07;;
65879;SDS011;52661;51.364;6.054;2023-08-08T06:59:48;6.05;;;2.60;;
65879;SDS011;52661;51.364;6.054;2023-08-08T07:02:16;5.55;;;2.42;;
65879;SDS011;52661;51.364;6.054;2023-08-08T07:04:42;8.88;;;2.33;;
65879;SDS011;52661;51.364;6.054;2023-08-08T07:07:07;6.65;;;2.25;;
65879;SDS011;52661;51.364;6.054;2023-08-08T07:09:33;7.78;;;2.30;;
65879;SDS011;52661;51.364;6.054;2023-08-08T07:11:58;4.97;;;2.42;;
65879;SDS011;52661;51.364;6.054;2023-08-08T07:14:24;4.63;;;1.77;;
65879;SDS011;52661;51.364;6.054;2023-08-08T07:16:49;5.68;;;2.08;;
65879;SDS011;52661;51.364;6.054;2023-08-08T07:19:15;6.30;;;2.22;;
65879;SDS011;52661;51.364;6.054;2023-08-08T07:21:40;6.53;;;1.45;;
65879;SDS011;52661;51.364;6.054;2023-08-08T07:24:06;7.30;;;2.25;;
65879;SDS011;52661;51.364;6.054;2023-08-08T07:26:32;10.60;;;2.70;;
65879;SDS011;52661;51.364;6.054;2023-08-08T07:28:57;7.95;;;2.65;;
65879;SDS011;52661;51.364;6.054;2023-08-08T07:31:23;8.55;;;2.63;;
65879;SDS011;52661;51.364;6.054;2023-08-08T07:33:48;5.57;;;2.72;;
65879;SDS011;52661;51.364;6.054;2023-08-08T07:36:14;8.85;;;2.22;;
65879;SDS011;52661;51.364;6.054;2023-08-08T07:38:39;7.47;;;2.10;;
65879;SDS011;52661;51.364;6.054;2023-08-08T07:41:05;7.65;;;1.67;;
65879;SDS011;52661;51.364;6.054;2023-08-08T07:43:30;10.85;;;2.60;;
65879;SDS011;52661;51.364;6.054;2023-08-08T07:45:56;7.25;;;2.13;;
65879;SDS011;52661;51.364;6.054;2023-08-08T07:48:21;10.50;;;2.70;;
65879;SDS011;52661;51.364;6.054;2023-08-08T07:50:46;6.88;;;2.15;;
65879;SDS011;52661;51.364;6.054;2023-08-08T07:53:12;7.40;;;2.58;;
65879;SDS011;52661;51.364;6.054;2023-08-08T07:55:37;7.90;;;2.42;;
65879;SDS011;52661;51.364;6.054;2023-08-08T07:58:02;11.38;;;2.50;;
65879;SDS011;52661;51.364;6.054;2023-08-08T08:00:28;2.72;;;1.63;;
65879;SDS011;52661;51.364;6.054;2023-08-08T08:02:53;8.10;;;2.05;;
65879;SDS011;52661;51.364;6.054;2023-08-08T08:05:19;7.18;;;2.40;;
65879;SDS011;52661;51.364;6.054;2023-08-08T08:07:45;6.43;;;2.60;;
65879;SDS011;52661;51.364;6.054;2023-08-08T08:10:11;6.68;;;2.97;;
65879;SDS011;52661;51.364;6.054;2023-08-08T08:12:40;6.90;;;2.08;;
65879;SDS011;52661;51.364;6.054;2023-08-08T08:15:07;6.07;;;2.22;;
65879;SDS011;52661;51.364;6.054;2023-08-08T08:17:33;11.68;;;2.78;;
65879;SDS011;52661;51.364;6.054;2023-08-08T08:19:58;5.95;;;2.55;;
65879;SDS011;52661;51.364;6.054;2023-08-08T08:22:24;7.30;;;3.22;;
65879;SDS011;52661;51.364;6.054;2023-08-08T08:24:49;5.45;;;1.58;;
65879;SDS011;52661;51.364;6.054;2023-08-08T08:27:15;6.60;;;2.28;;
65879;SDS011;52661;51.364;6.054;2023-08-08T08:29:40;6.13;;;2.53;;
65879;SDS011;52661;51.364;6.054;2023-08-08T08:32:06;4.50;;;2.65;;
65879;SDS011;52661;51.364;6.054;2023-08-08T08:34:31;6.18;;;1.98;;
65879;SDS011;52661;51.364;6.054;2023-08-08T08:36:57;5.10;;;2.20;;
65879;SDS011;52661;51.364;6.054;2023-08-08T08:39:22;5.70;;;2.45;;
65879;SDS011;52661;51.364;6.054;2023-08-08T08:41:49;6.28;;;2.78;;
65879;SDS011;52661;51.364;6.054;2023-08-08T08:44:18;7.22;;;2.40;;
65879;SDS011;52661;51.364;6.054;2023-08-08T08:46:47;7.78;;;2.53;;
65879;SDS011;52661;51.364;6.054;2023-08-08T08:49:14;7.45;;;2.38;;
65879;SDS011;52661;51.364;6.054;2023-08-08T08:51:42;7.43;;;2.53;;
65879;SDS011;52661;51.364;6.054;2023-08-08T08:54:07;4.05;;;1.77;;
65879;SDS011;52661;51.364;6.054;2023-08-08T08:56:33;6.07;;;2.28;;
65879;SDS011;52661;51.364;6.054;2023-08-08T08:58:59;7.63;;;1.92;;
65879;SDS011;52661;51.364;6.054;2023-08-08T09:01:25;6.43;;;2.35;;
65879;SDS011;52661;51.364;6.054;2023-08-08T09:03:52;8.70;;;1.85;;
65879;SDS011;52661;51.364;6.054;2023-08-08T09:06:18;6.95;;;2.40;;
65879;SDS011;52661;51.364;6.054;2023-08-08T09:11:12;5.07;;;2.00;;
65879;SDS011;52661;51.364;6.054;2023-08-08T09:13:38;3.53;;;1.55;;
65879;SDS011;52661;51.364;6.054;2023-08-08T09:16:07;5.25;;;1.80;;
65879;SDS011;52661;51.364;6.054;2023-08-08T09:18:37;5.07;;;1.38;;
65879;SDS011;52661;51.364;6.054;2023-08-08T09:21:03;4.47;;;1.88;;
65879;SDS011;52661;51.364;6.054;2023-08-08T09:23:29;4.70;;;2.00;;
65879;SDS011;52661;51.364;6.054;2023-08-08T09:25:55;6.30;;;1.90;;
65879;SDS011;52661;51.364;6.054;2023-08-08T09:28:20;3.92;;;1.10;;
65879;SDS011;52661;51.364;6.054;2023-08-08T09:30:46;3.30;;;1.40;;
65879;SDS011;52661;51.364;6.054;2023-08-08T09:33:11;6.05;;;1.58;;
65879;SDS011;52661;51.364;6.054;2023-08-08T09:35:40;4.15;;;1.77;;
65879;SDS011;52661;51.364;6.054;2023-08-08T09:38:06;2.80;;;1.52;;
65879;SDS011;52661;51.364;6.054;2023-08-08T09:40:32;3.85;;;1.60;;
65879;SDS011;52661;51.364;6.054;2023-08-08T09:42:57;3.53;;;1.35;;
65879;SDS011;52661;51.364;6.054;2023-08-08T09:45:25;3.90;;;0.95;;
65879;SDS011;52661;51.364;6.054;2023-08-08T09:47:51;3.90;;;1.50;;
65879;SDS011;52661;51.364;6.054;2023-08-08T09:50:19;5.88;;;1.40;;
65879;SDS011;52661;51.364;6.054;2023-08-08T09:52:45;4.95;;;1.15;;
65879;SDS011;52661;51.364;6.054;2023-08-08T09:55:12;2.50;;;1.33;;
65879;SDS011;52661;51.364;6.054;2023-08-08T09:57:40;4.82;;;1.42;;
65879;SDS011;52661;51.364;6.054;2023-08-08T10:00:07;6.65;;;1.77;;
65879;SDS011;52661;51.364;6.054;2023-08-08T10:02:37;5.30;;;1.38;;
65879;SDS011;52661;51.364;6.054;2023-08-08T10:05:05;4.25;;;1.42;;
65879;SDS011;52661;51.364;6.054;2023-08-08T10:07:31;3.92;;;1.27;;
65879;SDS011;52661;51.364;6.054;2023-08-08T10:09:56;3.40;;;1.60;;
65879;SDS011;52661;51.364;6.054;2023-08-08T10:12:23;4.00;;;1.05;;
65879;SDS011;52661;51.364;6.054;2023-08-08T10:14:51;12.35;;;2.63;;
65879;SDS011;52661;51.364;6.054;2023-08-08T10:17:17;2.65;;;1.20;;
65879;SDS011;52661;51.364;6.054;2023-08-08T10:20:18;5.25;;;1.60;;
65879;SDS011;52661;51.364;6.054;2023-08-08T10:22:43;5.00;;;1.45;;
65879;SDS011;52661;51.364;6.054;2023-08-08T10:25:17;4.10;;;1.67;;
65879;SDS011;52661;51.364;6.054;2023-08-08T10:27:44;4.18;;;1.10;;
65879;SDS011;52661;51.364;6.054;2023-08-08T10:30:10;7.20;;;1.50;;
65879;SDS011;52661;51.364;6.054;2023-08-08T10:32:40;4.00;;;0.95;;
65879;SDS011;52661;51.364;6.054;2023-08-08T10:35:08;2.90;;;1.42;;
65879;SDS011;52661;51.364;6.054;2023-08-08T10:37:34;4.93;;;1.58;;
65879;SDS011;52661;51.364;6.054;2023-08-08T10:40:02;6.80;;;1.48;;
65879;SDS011;52661;51.364;6.054;2023-08-08T10:42:32;6.80;;;1.67;;
65879;SDS011;52661;51.364;6.054;2023-08-08T10:45:05;6.80;;;1.65;;
65879;SDS011;52661;51.364;6.054;2023-08-08T10:47:34;3.35;;;1.73;;
65879;SDS011;52661;51.364;6.054;2023-08-08T10:55:20;5.53;;;2.55;;
65879;SDS011;52661;51.364;6.054;2023-08-08T10:58:08;4.43;;;1.58;;
65879;SDS011;52661;51.364;6.054;2023-08-08T11:00:36;3.20;;;1.40;;
65879;SDS011;52661;51.364;6.054;2023-08-08T11:03:04;4.18;;;1.60;;
65879;SDS011;52661;51.364;6.054;2023-08-08T11:05:31;5.57;;;1.75;;
65879;SDS011;52661;51.364;6.054;2023-08-08T11:07:58;3.95;;;1.70;;
65879;SDS011;52661;51.364;6.054;2023-08-08T11:10:25;3.65;;;1.48;;
65879;SDS011;52661;51.364;6.054;2023-08-08T11:12:59;3.15;;;1.25;;
65879;SDS011;52661;51.364;6.054;2023-08-08T11:15:26;9.60;;;2.15;;
65879;SDS011;52661;51.364;6.054;2023-08-08T11:17:52;3.67;;;1.50;;
65879;SDS011;52661;51.364;6.054;2023-08-08T11:20:20;2.53;;;0.95;;
65879;SDS011;52661;51.364;6.054;2023-08-08T11:22:50;3.38;;;1.35;;
65879;SDS011;52661;51.364;6.054;2023-08-08T11:25:17;2.35;;;1.02;;
65879;SDS011;52661;51.364;6.054;2023-08-08T11:27:48;4.60;;;1.98;;
65879;SDS011;52661;51.364;6.054;2023-08-08T11:30:15;4.45;;;1.75;;
65879;SDS011;52661;51.364;6.054;2023-08-08T11:32:40;4.45;;;1.73;;
65879;SDS011;52661;51.364;6.054;2023-08-08T11:35:07;3.78;;;1.63;;
65879;SDS011;52661;51.364;6.054;2023-08-08T11:37:32;4.63;;;1.58;;
65879;SDS011;52661;51.364;6.054;2023-08-08T11:39:58;3.28;;;1.65;;
65879;SDS011;52661;51.364;6.054;2023-08-08T11:42:24;3.13;;;1.55;;
65879;SDS011;52661;51.364;6.054;2023-08-08T11:44:50;4.50;;;1.60;;
65879;SDS011;52661;51.364;6.054;2023-08-08T11:47:16;4.22;;;1.52;;
65879;SDS011;52661;51.364;6.054;2023-08-08T11:49:42;6.82;;;1.67;;
65879;SDS011;52661;51.364;6.054;2023-08-08T11:52:08;3.25;;;1.48;;
65879;SDS011;52661;51.364;6.054;2023-08-08T11:54:33;3.60;;;1.67;;
65879;SDS011;52661;51.364;6.054;2023-08-08T11:57:02;4.35;;;1.30;;
65879;SDS011;52661;51.364;6.054;2023-08-08T11:59:28;4.80;;;1.50;;
65879;SDS011;52661;51.364;6.054;2023-08-08T12:01:55;7.13;;;1.92;;
65879;SDS011;52661;51.364;6.054;2023-08-08T12:04:21;4.25;;;1.83;;
65879;SDS011;52661;51.364;6.054;2023-08-08T12:06:47;4.57;;;2.03;;
65879;SDS011;52661;51.364;6.054;2023-08-08T12:09:12;4.22;;;2.08;;
65879;SDS011;52661;51.364;6.054;2023-08-08T12:11:40;2.17;;;1.30;;
65879;SDS011;52661;51.364;6.054;2023-08-08T12:14:07;2.83;;;1.25;;
65879;SDS011;52661;51.364;6.054;2023-08-08T12:16:36;3.70;;;1.27;;
65879;SDS011;52661;51.364;6.054;2023-08-08T12:19:04;2.50;;;1.27;;
65879;SDS011;52661;51.364;6.054;2023-08-08T12:21:34;3.60;;;1.02;;
65879;SDS011;52661;51.364;6.054;2023-08-08T12:24:01;2.75;;;1.88;;
65879;SDS011;52661;51.364;6.054;2023-08-08T12:26:27;3.97;;;1.23;;
65879;SDS011;52661;51.364;6.054;2023-08-08T12:28:53;2.45;;;1.10;;
65879;SDS011;52661;51.364;6.054;2023-08-08T12:31:19;4.25;;;1.60;;
65879;SDS011;52661;51.364;6.054;2023-08-08T12:33:45;2.33;;;0.98;;
65879;SDS011;52661;51.364;6.054;2023-08-08T12:36:10;4.45;;;1.27;;
65879;SDS011;52661;51.364;6.054;2023-08-08T12:38:36;5.30;;;1.52;;
65879;SDS011;52661;51.364;6.054;2023-08-08T12:41:01;2.92;;;0.98;;
65879;SDS011;52661;51.364;6.054;2023-08-08T12:43:27;3.80;;;1.42;;
65879;SDS011;52661;51.364;6.054;2023-08-08T12:45:53;2.97;;;1.35;;
65879;SDS011;52661;51.364;6.054;2023-08-08T12:48:18;7.05;;;1.60;;
65879;SDS011;52661;51.364;6.054;2023-08-08T12:50:43;3.60;;;1.80;;
65879;SDS011;52661;51.364;6.054;2023-08-08T12:53:09;2.70;;;1.17;;
65879;SDS011;52661;51.364;6.054;2023-08-08T12:55:35;5.75;;;1.13;;
65879;SDS011;52661;51.364;6.054;2023-08-08T12:58:02;3.83;;;1.15;;
65879;SDS011;52661;51.364;6.054;2023-08-08T13:00:28;2.92;;;1.10;;
65879;SDS011;52661;51.364;6.054;2023-08-08T13:02:54;3.38;;;1.02;;
65879;SDS011;52661;51.364;6.054;2023-08-08T13:05:19;2.40;;;1.35;;
65879;SDS011;52661;51.364;6.054;2023-08-08T13:07:44;3.83;;;1.08;;
65879;SDS011;52661;51.364;6.054;2023-08-08T13:10:10;4.05;;;1.40;;
65879;SDS011;52661;51.364;6.054;2023-08-08T13:12:35;2.78;;;0.60;;
65879;SDS011;52661;51.364;6.054;2023-08-08T13:15:01;4.80;;;1.45;;
65879;SDS011;52661;51.364;6.054;2023-08-08T13:17:26;3.25;;;1.25;;
65879;SDS011;52661;51.364;6.054;2023-08-08T13:19:52;2.60;;;1.42;;
65879;SDS011;52661;51.364;6.054;2023-08-08T13:22:17;2.05;;;1.02;;
65879;SDS011;52661;51.364;6.054;2023-08-08T13:24:42;2.38;;;1.15;;
65879;SDS011;52661;51.364;6.054;2023-08-08T13:27:08;1.92;;;1.30;;
65879;SDS011;52661;51.364;6.054;2023-08-08T13:29:33;1.60;;;0.93;;
65879;SDS011;52661;51.364;6.054;2023-08-08T13:31:59;2.47;;;1.23;;
65879;SDS011;52661;51.364;6.054;2023-08-08T13:34:24;2.80;;;0.73;;
65879;SDS011;52661;51.364;6.054;2023-08-08T13:36:49;3.35;;;1.10;;
65879;SDS011;52661;51.364;6.054;2023-08-08T13:39:15;2.40;;;1.00;;
65879;SDS011;52661;51.364;6.054;2023-08-08T13:41:40;3.80;;;0.80;;
65879;SDS011;52661;51.364;6.054;2023-08-08T13:44:05;2.97;;;1.20;;
65879;SDS011;52661;51.364;6.054;2023-08-08T13:46:31;2.28;;;0.80;;
65879;SDS011;52661;51.364;6.054;2023-08-08T13:48:56;2.10;;;0.85;;
65879;SDS011;52661;51.364;6.054;2023-08-08T13:51:22;2.53;;;0.77;;
65879;SDS011;52661;51.364;6.054;2023-08-08T13:53:47;1.73;;;1.15;;
65879;SDS011;52661;51.364;6.054;2023-08-08T13:56:14;1.65;;;0.70;;
65879;SDS011;52661;51.364;6.054;2023-08-08T13:58:39;1.52;;;0.88;;
65879;SDS011;52661;51.364;6.054;2023-08-08T14:01:05;6.00;;;0.63;;
65879;SDS011;52661;51.364;6.054;2023-08-08T14:03:30;2.72;;;0.90;;
65879;SDS011;52661;51.364;6.054;2023-08-08T14:05:55;2.47;;;1.13;;
65879;SDS011;52661;51.364;6.054;2023-08-08T14:08:22;2.88;;;0.98;;
65879;SDS011;52661;51.364;6.054;2023-08-08T14:10:48;2.28;;;1.35;;
65879;SDS011;52661;51.364;6.054;2023-08-08T14:13:13;2.08;;;0.65;;
65879;SDS011;52661;51.364;6.054;2023-08-08T14:15:39;2.38;;;0.70;;
65879;SDS011;52661;51.364;6.054;2023-08-08T14:18:04;3.20;;;1.27;;
65879;SDS011;52661;51.364;6.054;2023-08-08T14:20:30;3.85;;;0.73;;
65879;SDS011;52661;51.364;6.054;2023-08-08T14:22:55;1.95;;;0.90;;
65879;SDS011;52661;51.364;6.054;2023-08-08T14:25:21;2.60;;;1.15;;
65879;SDS011;52661;51.364;6.054;2023-08-08T14:27:47;4.72;;;0.95;;
65879;SDS011;52661;51.364;6.054;2023-08-08T14:30:12;2.17;;;1.00;;
65879;SDS011;52661;51.364;6.054;2023-08-08T14:32:38;2.63;;;0.60;;
65879;SDS011;52661;51.364;6.054;2023-08-08T14:35:03;2.72;;;1.27;;
65879;SDS011;52661;51.364;6.054;2023-08-08T14:37:30;6.80;;;1.40;;
65879;SDS011;52661;51.364;6.054;2023-08-08T14:39:56;3.65;;;1.08;;
65879;SDS011;52661;51.364;6.054;2023-08-08T14:42:21;2.20;;;1.30;;
65879;SDS011;52661;51.364;6.054;2023-08-08T14:44:47;3.17;;;1.10;;
65879;SDS011;52661;51.364;6.054;2023-08-08T14:47:12;2.67;;;1.35;;
65879;SDS011;52661;51.364;6.054;2023-08-08T14:49:38;1.88;;;1.23;;
65879;SDS011;52661;51.364;6.054;2023-08-08T14:52:03;3.17;;;0.95;;
65879;SDS011;52661;51.364;6.054;2023-08-08T14:54:28;3.58;;;0.95;;